sensor_id;sensor_type;location;lat;lon;timestamp;pressure;altitude;pressure_sealevel;temperature;humidity
59650;BME280;46162;57.568;25.814;2023-01-29T00:00:17;100739.38;;;-3.34;100.00
59650;BME280;46162;57.568;25.814;2023-01-29T00:02:47;100737.50;;;-3.32;100.00
59650;BME280;46162;57.568;25.814;2023-01-29T00:05:16;100748.94;;;-3.31;100.00
59650;BME280;46162;57.568;25.814;2023-01-29T00:07:54;100746.22;;;-3.30;100.00
59650;BME280;46162;57.568;25.814;2023-01-29T00:10:23;100753.25;;;-3.29;100.00
59650;BME280;46162;57.568;25.814;2023-01-29T00:12:52;100755.81;;;-3.27;100.00
59650;BME280;46162;57.568;25.814;2023-01-29T00:15:21;100743.44;;;-3.27;100.00
59650;BME280;46162;57.568;25.814;2023-01-29T00:17:51;100748.72;;;-3.27;100.00
59650;BME280;46162;57.568;25.814;2023-01-29T00:20:19;100747.81;;;-3.26;100.00
59650;BME280;46162;57.568;25.814;2023-01-29T00:22:48;100739.81;;;-3.24;100.00
59650;BME280;46162;57.568;25.814;2023-01-29T00:25:16;100745.19;;;-3.26;100.00
59650;BME280;46162;57.568;25.814;2023-01-29T00:27:45;100742.41;;;-3.22;100.00
59650;BME280;46162;57.568;25.814;2023-01-29T00:30:14;100741.47;;;-3.21;100.00
59650;BME280;46162;57.568;25.814;2023-01-29T00:32:46;100746.75;;;-3.21;100.00
59650;BME280;46162;57.568;25.814;2023-01-29T00:35:16;100758.13;;;-3.19;100.00
59650;BME280;46162;57.568;25.814;2023-01-29T00:37:45;100743.22;;;-3.20;100.00
59650;BME280;46162;57.568;25.814;2023-01-29T00:40:14;100735.28;;;-3.20;100.00
59650;BME280;46162;57.568;25.814;2023-01-29T00:42:44;100726.44;;;-3.19;100.00
59650;BME280;46162;57.568;25.814;2023-01-29T00:45:31;100730.88;;;-3.20;100.00
59650;BME280;46162;57.568;25.814;2023-01-29T00:47:59;100727.31;;;-3.19;100.00
59650;BME280;46162;57.568;25.814;2023-01-29T00:50:30;100725.44;;;-3.17;100.00
59650;BME280;46162;57.568;25.814;2023-01-29T00:52:58;100729.88;;;-3.17;100.00
59650;BME280;46162;57.568;25.814;2023-01-29T00:55:27;100737.75;;;-3.16;100.00
59650;BME280;46162;57.568;25.814;2023-01-29T00:57:56;100722.75;;;-3.15;100.00
59650;BME280;46162;57.568;25.814;2023-01-29T01:00:24;100723.56;;;-3.13;100.00
59650;BME280;46162;57.568;25.814;2023-01-29T01:02:53;100721.06;;;-3.16;100.00
59650;BME280;46162;57.568;25.814;2023-01-29T01:05:34;100718.41;;;-3.16;100.00
59650;BME280;46162;57.568;25.814;2023-01-29T01:08:05;100724.47;;;-3.14;100.00
59650;BME280;46162;57.568;25.814;2023-01-29T01:11:00;100716.63;;;-3.16;100.00
59650;BME280;46162;57.568;25.814;2023-01-29T01:13:28;100708.63;;;-3.14;100.00
59650;BME280;46162;57.568;25.814;2023-01-29T01:15:58;100710.34;;;-3.13;100.00
59650;BME280;46162;57.568;25.814;2023-01-29T01:18:28;100705.06;;;-3.13;100.00
59650;BME280;46162;57.568;25.814;2023-01-29T01:20:59;100705.06;;;-3.13;100.00
59650;BME280;46162;57.568;25.814;2023-01-29T01:23:27;100705.88;;;-3.11;100.00
59650;BME280;46162;57.568;25.814;2023-01-29T01:25:56;100694.38;;;-3.10;100.00
59650;BME280;46162;57.568;25.814;2023-01-29T01:28:25;100696.16;;;-3.11;100.00
59650;BME280;46162;57.568;25.814;2023-01-29T01:30:54;100697.00;;;-3.10;100.00
59650;BME280;46162;57.568;25.814;2023-01-29T01:33:22;100686.50;;;-3.12;100.00
59650;BME280;46162;57.568;25.814;2023-01-29T01:35:51;100685.50;;;-3.09;100.00
59650;BME280;46162;57.568;25.814;2023-01-29T01:38:21;100674.03;;;-3.08;100.00
59650;BME280;46162;57.568;25.814;2023-01-29T01:40:50;100683.66;;;-3.07;100.00
59650;BME280;46162;57.568;25.814;2023-01-29T01:43:19;100672.19;;;-3.06;100.00
59650;BME280;46162;57.568;25.814;2023-01-29T01:45:47;100676.69;;;-3.08;100.00
59650;BME280;46162;57.568;25.814;2023-01-29T01:48:18;100667.81;;;-3.07;100.00
59650;BME280;46162;57.568;25.814;2023-01-29T01:50:51;100668.69;;;-3.07;100.00
59650;BME280;46162;57.568;25.814;2023-01-29T01:53:25;100673.06;;;-3.06;100.00
59650;BME280;46162;57.568;25.814;2023-01-29T01:56:01;100668.63;;;-3.05;100.00
59650;BME280;46162;57.568;25.814;2023-01-29T01:58:33;100671.25;;;-3.05;100.00
59650;BME280;46162;57.568;25.814;2023-01-29T02:01:06;100669.41;;;-3.03;100.00
59650;BME280;46162;57.568;25.814;2023-01-29T02:03:39;100667.63;;;-3.03;100.00
59650;BME280;46162;57.568;25.814;2023-01-29T02:06:28;100662.28;;;-3.01;100.00
59650;BME280;46162;57.568;25.814;2023-01-29T02:09:19;100664.94;;;-3.01;100.00
59650;BME280;46162;57.568;25.814;2023-01-29T02:12:04;100661.34;;;-3.00;100.00
59650;BME280;46162;57.568;25.814;2023-01-29T02:14:34;100662.16;;;-2.98;100.00
59650;BME280;46162;57.568;25.814;2023-01-29T02:17:07;100656.06;;;-3.00;100.00
59650;BME280;46162;57.568;25.814;2023-01-29T02:19:46;100655.16;;;-2.99;100.00
59650;BME280;46162;57.568;25.814;2023-01-29T02:22:40;100660.38;;;-2.97;100.00
59650;BME280;46162;57.568;25.814;2023-01-29T02:25:46;100655.94;;;-2.97;100.00
59650;BME280;46162;57.568;25.814;2023-01-29T02:31:03;100659.47;;;-2.96;100.00
59650;BME280;46162;57.568;25.814;2023-01-29T02:33:43;100652.38;;;-2.96;100.00
59650;BME280;46162;57.568;25.814;2023-01-29T02:36:20;100644.47;;;-2.96;100.00
59650;BME280;46162;57.568;25.814;2023-01-29T02:38:57;100641.69;;;-2.93;100.00
59650;BME280;46162;57.568;25.814;2023-01-29T02:41:31;100635.53;;;-2.93;100.00
59650;BME280;46162;57.568;25.814;2023-01-29T02:44:07;100639.03;;;-2.93;100.00
59650;BME280;46162;57.568;25.814;2023-01-29T02:46:42;100642.47;;;-2.91;100.00
59650;BME280;46162;57.568;25.814;2023-01-29T02:49:20;100645.97;;;-2.90;100.00
59650;BME280;46162;57.568;25.814;2023-01-29T02:51:57;100644.97;;;-2.88;100.00
59650;BME280;46162;57.568;25.814;2023-01-29T02:54:31;100643.19;;;-2.87;100.00
59650;BME280;46162;57.568;25.814;2023-01-29T02:57:06;100652.84;;;-2.86;100.00
59650;BME280;46162;57.568;25.814;2023-01-29T02:59:47;100645.78;;;-2.86;100.00
59650;BME280;46162;57.568;25.814;2023-01-29T03:02:20;100644.81;;;-2.85;100.00
59650;BME280;46162;57.568;25.814;2023-01-29T03:05:00;100636.91;;;-2.85;100.00
59650;BME280;46162;57.568;25.814;2023-01-29T03:07:44;100639.50;;;-2.83;100.00
59650;BME280;46162;57.568;25.814;2023-01-29T03:10:32;100635.91;;;-2.82;100.00
59650;BME280;46162;57.568;25.814;2023-01-29T03:13:06;100626.94;;;-2.78;100.00
59650;BME280;46162;57.568;25.814;2023-01-29T03:15:42;100626.06;;;-2.78;100.00
59650;BME280;46162;57.568;25.814;2023-01-29T03:18:37;100631.28;;;-2.77;100.00
59650;BME280;46162;57.568;25.814;2023-01-29T03:21:17;100615.31;;;-2.74;100.00
59650;BME280;46162;57.568;25.814;2023-01-29T03:24:08;100614.50;;;-2.76;100.00
59650;BME280;46162;57.568;25.814;2023-01-29T03:26:57;100604.78;;;-2.75;100.00
59650;BME280;46162;57.568;25.814;2023-01-29T03:29:48;100604.66;;;-2.72;100.00
59650;BME280;46162;57.568;25.814;2023-01-29T03:32:49;100596.59;;;-2.69;100.00
59650;BME280;46162;57.568;25.814;2023-01-29T03:35:22;100605.38;;;-2.69;100.00
59650;BME280;46162;57.568;25.814;2023-01-29T03:38:03;100606.28;;;-2.70;100.00
59650;BME280;46162;57.568;25.814;2023-01-29T03:43:27;100601.00;;;-2.70;100.00
59650;BME280;46162;57.568;25.814;2023-01-29T03:46:03;100590.44;;;-2.70;100.00
59650;BME280;46162;57.568;25.814;2023-01-29T03:48:39;100590.53;;;-2.71;100.00
59650;BME280;46162;57.568;25.814;2023-01-29T03:51:21;100586.94;;;-2.70;100.00
59650;BME280;46162;57.568;25.814;2023-01-29T03:53:57;100586.94;;;-2.70;100.00
59650;BME280;46162;57.568;25.814;2023-01-29T03:56:35;100583.38;;;-2.69;100.00
59650;BME280;46162;57.568;25.814;2023-01-29T03:59:16;100588.69;;;-2.69;100.00
59650;BME280;46162;57.568;25.814;2023-01-29T04:02:14;100576.22;;;-2.67;100.00
59650;BME280;46162;57.568;25.814;2023-01-29T04:05:03;100577.97;;;-2.66;100.00
59650;BME280;46162;57.568;25.814;2023-01-29T04:07:41;100578.81;;;-2.66;100.00
59650;BME280;46162;57.568;25.814;2023-01-29T04:10:16;100572.66;;;-2.66;100.00
59650;BME280;46162;57.568;25.814;2023-01-29T04:12:49;100566.44;;;-2.65;100.00
59650;BME280;46162;57.568;25.814;2023-01-29T04:15:21;100571.66;;;-2.64;100.00
59650;BME280;46162;57.568;25.814;2023-01-29T04:17:52;100568.97;;;-2.62;100.00
59650;BME280;46162;57.568;25.814;2023-01-29T04:20:34;100574.25;;;-2.62;100.00
59650;BME280;46162;57.568;25.814;2023-01-29T04:23:05;100578.59;;;-2.61;100.00
59650;BME280;46162;57.568;25.814;2023-01-29T04:25:42;100574.16;;;-2.61;100.00
59650;BME280;46162;57.568;25.814;2023-01-29T04:28:18;100573.25;;;-2.60;100.00
59650;BME280;46162;57.568;25.814;2023-01-29T04:30:53;100548.69;;;-2.62;100.00
59650;BME280;46162;57.568;25.814;2023-01-29T04:33:33;100552.16;;;-2.61;100.00
59650;BME280;46162;57.568;25.814;2023-01-29T04:36:15;100542.38;;;-2.59;100.00
59650;BME280;46162;57.568;25.814;2023-01-29T04:38:54;100548.38;;;-2.55;100.00
59650;BME280;46162;57.568;25.814;2023-01-29T04:41:30;100547.53;;;-2.56;100.00
59650;BME280;46162;57.568;25.814;2023-01-29T04:44:07;100536.00;;;-2.55;100.00
59650;BME280;46162;57.568;25.814;2023-01-29T04:46:45;100547.38;;;-2.53;100.00
59650;BME280;46162;57.568;25.814;2023-01-29T04:49:26;100535.94;;;-2.53;100.00
59650;BME280;46162;57.568;25.814;2023-01-29T04:52:04;100543.81;;;-2.52;100.00
59650;BME280;46162;57.568;25.814;2023-01-29T04:54:48;100538.53;;;-2.52;100.00
59650;BME280;46162;57.568;25.814;2023-01-29T04:57:21;100530.50;;;-2.50;100.00
59650;BME280;46162;57.568;25.814;2023-01-29T04:59:59;100528.88;;;-2.53;100.00
59650;BME280;46162;57.568;25.814;2023-01-29T05:02:33;100534.88;;;-2.49;100.00
59650;BME280;46162;57.568;25.814;2023-01-29T05:05:05;100530.44;;;-2.49;100.00
59650;BME280;46162;57.568;25.814;2023-01-29T05:07:37;100524.22;;;-2.48;100.00
59650;BME280;46162;57.568;25.814;2023-01-29T05:10:09;100523.31;;;-2.47;100.00
59650;BME280;46162;57.568;25.814;2023-01-29T05:12:42;100526.75;;;-2.45;100.00
59650;BME280;46162;57.568;25.814;2023-01-29T05:15:20;100536.38;;;-2.44;100.00
59650;BME280;46162;57.568;25.814;2023-01-29T05:17:51;100531.09;;;-2.44;100.00
59650;BME280;46162;57.568;25.814;2023-01-29T05:20:20;100531.88;;;-2.42;100.00
59650;BME280;46162;57.568;25.814;2023-01-29T05:22:51;100530.13;;;-2.43;100.00
59650;BME280;46162;57.568;25.814;2023-01-29T05:25:21;100523.09;;;-2.42;100.00
59650;BME280;46162;57.568;25.814;2023-01-29T05:27:51;100512.56;;;-2.44;100.00
59650;BME280;46162;57.568;25.814;2023-01-29T05:30:33;100507.28;;;-2.44;100.00
59650;BME280;46162;57.568;25.814;2023-01-29T05:33:08;100513.38;;;-2.42;100.00
59650;BME280;46162;57.568;25.814;2023-01-29T05:35:39;100506.28;;;-2.41;100.00
59650;BME280;46162;57.568;25.814;2023-01-29T05:38:14;100506.28;;;-2.41;100.00
59650;BME280;46162;57.568;25.814;2023-01-29T05:40:43;100506.22;;;-2.40;100.00
59650;BME280;46162;57.568;25.814;2023-01-29T05:43:16;100506.22;;;-2.40;100.00
59650;BME280;46162;57.568;25.814;2023-01-29T05:45:51;100504.34;;;-2.38;100.00
59650;BME280;46162;57.568;25.814;2023-01-29T05:48:20;100503.50;;;-2.38;100.00
59650;BME280;46162;57.568;25.814;2023-01-29T05:50:50;100506.91;;;-2.36;100.00
59650;BME280;46162;57.568;25.814;2023-01-29T05:53:20;100500.78;;;-2.36;100.00
59650;BME280;46162;57.568;25.814;2023-01-29T05:55:49;100499.84;;;-2.35;100.00
59650;BME280;46162;57.568;25.814;2023-01-29T05:58:18;100505.06;;;-2.34;100.00
59650;BME280;46162;57.568;25.814;2023-01-29T06:00:47;100502.34;;;-2.32;100.00
59650;BME280;46162;57.568;25.814;2023-01-29T06:03:16;100497.06;;;-2.32;100.00
59650;BME280;46162;57.568;25.814;2023-01-29T06:05:45;100498.78;;;-2.31;100.00
59650;BME280;46162;57.568;25.814;2023-01-29T06:08:15;100489.13;;;-2.32;100.00
59650;BME280;46162;57.568;25.814;2023-01-29T06:10:45;100502.25;;;-2.31;100.00
59650;BME280;46162;57.568;25.814;2023-01-29T06:13:14;100484.59;;;-2.30;100.00
59650;BME280;46162;57.568;25.814;2023-01-29T06:15:44;100491.63;;;-2.29;100.00
59650;BME280;46162;57.568;25.814;2023-01-29T06:18:13;100488.03;;;-2.28;100.00
59650;BME280;46162;57.568;25.814;2023-01-29T06:20:42;100492.41;;;-2.27;100.00
59650;BME280;46162;57.568;25.814;2023-01-29T06:23:11;100480.88;;;-2.26;100.00
59650;BME280;46162;57.568;25.814;2023-01-29T06:25:39;100489.75;;;-2.27;100.00
59650;BME280;46162;57.568;25.814;2023-01-29T06:28:10;100491.47;;;-2.26;100.00
59650;BME280;46162;57.568;25.814;2023-01-29T06:30:41;100489.66;;;-2.26;100.00
59650;BME280;46162;57.568;25.814;2023-01-29T06:33:13;100486.03;;;-2.23;100.00
59650;BME280;46162;57.568;25.814;2023-01-29T06:35:42;100483.38;;;-2.23;100.00
59650;BME280;46162;57.568;25.814;2023-01-29T06:38:10;100476.28;;;-2.23;100.00
59650;BME280;46162;57.568;25.814;2023-01-29T06:40:39;100475.28;;;-2.20;100.00
59650;BME280;46162;57.568;25.814;2023-01-29T06:43:10;100469.06;;;-2.19;100.00
59650;BME280;46162;57.568;25.814;2023-01-29T06:45:46;100470.66;;;-2.15;100.00
59650;BME280;46162;57.568;25.814;2023-01-29T06:48:15;100468.00;;;-2.15;100.00
59650;BME280;46162;57.568;25.814;2023-01-29T06:50:44;100474.03;;;-2.13;100.00
59650;BME280;46162;57.568;25.814;2023-01-29T06:53:13;100471.41;;;-2.13;100.00
59650;BME280;46162;57.568;25.814;2023-01-29T06:55:42;100478.41;;;-2.12;100.00
59650;BME280;46162;57.568;25.814;2023-01-29T06:58:13;100471.41;;;-2.13;100.00
59650;BME280;46162;57.568;25.814;2023-01-29T07:00:41;100471.28;;;-2.10;100.00
59650;BME280;46162;57.568;25.814;2023-01-29T07:03:10;100472.97;;;-2.09;100.00
59650;BME280;46162;57.568;25.814;2023-01-29T07:05:39;100467.53;;;-2.06;100.00
59650;BME280;46162;57.568;25.814;2023-01-29T07:08:09;100460.44;;;-2.05;100.00
59650;BME280;46162;57.568;25.814;2023-01-29T07:10:38;100455.06;;;-2.04;100.00
59650;BME280;46162;57.568;25.814;2023-01-29T07:13:06;100458.50;;;-2.02;100.00
59650;BME280;46162;57.568;25.814;2023-01-29T07:15:36;100448.63;;;-1.98;100.00
59650;BME280;46162;57.568;25.814;2023-01-29T07:18:05;100451.25;;;-1.98;100.00
59650;BME280;46162;57.568;25.814;2023-01-29T07:20:39;100445.22;;;-2.00;100.00
59650;BME280;46162;57.568;25.814;2023-01-29T07:23:10;100443.31;;;-1.98;100.00
59650;BME280;46162;57.568;25.814;2023-01-29T07:25:39;100441.41;;;-1.95;100.00
59650;BME280;46162;57.568;25.814;2023-01-29T07:28:08;100432.59;;;-1.95;100.00
59650;BME280;46162;57.568;25.814;2023-01-29T07:30:38;100431.59;;;-1.92;100.00
59650;BME280;46162;57.568;25.814;2023-01-29T07:33:08;100426.13;;;-1.89;100.00
59650;BME280;46162;57.568;25.814;2023-01-29T07:35:38;100426.13;;;-1.89;100.00
59650;BME280;46162;57.568;25.814;2023-01-29T07:38:08;100424.28;;;-1.87;100.00
59650;BME280;46162;57.568;25.814;2023-01-29T07:40:38;100418.03;;;-1.86;100.00
59650;BME280;46162;57.568;25.814;2023-01-29T07:43:06;100415.22;;;-1.83;100.00
59650;BME280;46162;57.568;25.814;2023-01-29T07:45:39;100418.66;;;-1.81;100.00
59650;BME280;46162;57.568;25.814;2023-01-29T07:48:10;100412.16;;;-1.76;100.00
59650;BME280;46162;57.568;25.814;2023-01-29T07:50:39;100416.72;;;-1.78;100.00
59650;BME280;46162;57.568;25.814;2023-01-29T07:53:11;100411.50;;;-1.79;100.00
59650;BME280;46162;57.568;25.814;2023-01-29T07:55:43;100412.16;;;-1.76;100.00
59650;BME280;46162;57.568;25.814;2023-01-29T07:58:12;100411.19;;;-1.73;100.00
59650;BME280;46162;57.568;25.814;2023-01-29T08:00:42;100423.47;;;-1.72;100.00
59650;BME280;46162;57.568;25.814;2023-01-29T08:03:12;100404.78;;;-1.69;100.00
59650;BME280;46162;57.568;25.814;2023-01-29T08:05:42;100402.06;;;-1.67;100.00
59650;BME280;46162;57.568;25.814;2023-01-29T08:08:11;100394.97;;;-1.67;100.00
59650;BME280;46162;57.568;25.814;2023-01-29T08:10:41;100405.38;;;-1.64;100.00
59650;BME280;46162;57.568;25.814;2023-01-29T08:13:10;100405.47;;;-1.65;100.00
59650;BME280;46162;57.568;25.814;2023-01-29T08:15:43;100398.38;;;-1.65;100.00
59650;BME280;46162;57.568;25.814;2023-01-29T08:18:13;100400.09;;;-1.64;100.00
59650;BME280;46162;57.568;25.814;2023-01-29T08:20:43;100398.22;;;-1.62;100.00
59650;BME280;46162;57.568;25.814;2023-01-29T08:23:13;100394.63;;;-1.61;100.00
59650;BME280;46162;57.568;25.814;2023-01-29T08:25:42;100389.44;;;-1.62;100.00
59650;BME280;46162;57.568;25.814;2023-01-29T08:28:11;100391.00;;;-1.58;100.00
59650;BME280;46162;57.568;25.814;2023-01-29T08:30:41;100389.19;;;-1.58;100.00
59650;BME280;46162;57.568;25.814;2023-01-29T08:33:11;100387.31;;;-1.56;100.00
59650;BME280;46162;57.568;25.814;2023-01-29T08:35:39;100389.97;;;-1.56;100.00
59650;BME280;46162;57.568;25.814;2023-01-29T08:38:11;100381.00;;;-1.53;100.00
59650;BME280;46162;57.568;25.814;2023-01-29T08:40:40;100367.66;;;-1.52;100.00
59650;BME280;46162;57.568;25.814;2023-01-29T08:43:10;100366.81;;;-1.52;100.00
59650;BME280;46162;57.568;25.814;2023-01-29T08:45:42;100365.78;;;-1.49;100.00
59650;BME280;46162;57.568;25.814;2023-01-29T08:48:11;100362.19;;;-1.48;100.00
59650;BME280;46162;57.568;25.814;2023-01-29T08:50:40;100367.50;;;-1.48;100.00
59650;BME280;46162;57.568;25.814;2023-01-29T08:53:12;100371.75;;;-1.46;100.00
59650;BME280;46162;57.568;25.814;2023-01-29T08:55:41;100373.50;;;-1.45;100.00
59650;BME280;46162;57.568;25.814;2023-01-29T08:58:10;100364.59;;;-1.44;100.00
59650;BME280;46162;57.568;25.814;2023-01-29T09:00:39;100363.75;;;-1.44;100.00
59650;BME280;46162;57.568;25.814;2023-01-29T09:03:09;100368.88;;;-1.41;100.00
59650;BME280;46162;57.568;25.814;2023-01-29T09:05:39;100368.13;;;-1.43;100.00
59650;BME280;46162;57.568;25.814;2023-01-29T09:08:09;100363.56;;;-1.41;100.00
59650;BME280;46162;57.568;25.814;2023-01-29T09:10:38;100368.97;;;-1.43;100.00
59650;BME280;46162;57.568;25.814;2023-01-29T09:13:07;100371.53;;;-1.41;100.00
59650;BME280;46162;57.568;25.814;2023-01-29T09:15:35;100368.88;;;-1.41;100.00
59650;BME280;46162;57.568;25.814;2023-01-29T09:18:04;100378.63;;;-1.42;100.00
59650;BME280;46162;57.568;25.814;2023-01-29T09:20:34;100386.50;;;-1.40;100.00
59650;BME280;46162;57.568;25.814;2023-01-29T09:23:05;100375.91;;;-1.40;100.00
59650;BME280;46162;57.568;25.814;2023-01-29T09:25:34;100379.31;;;-1.38;100.00
59650;BME280;46162;57.568;25.814;2023-01-29T09:28:03;100377.41;;;-1.36;100.00
59650;BME280;46162;57.568;25.814;2023-01-29T09:30:32;100375.53;;;-1.34;100.00
59650;BME280;46162;57.568;25.814;2023-01-29T09:33:04;100377.41;;;-1.36;100.00
59650;BME280;46162;57.568;25.814;2023-01-29T09:35:34;100371.97;;;-1.33;100.00
59650;BME280;46162;57.568;25.814;2023-01-29T09:38:03;100374.63;;;-1.33;100.00
59650;BME280;46162;57.568;25.814;2023-01-29T09:40:37;100380.59;;;-1.30;100.00
59650;BME280;46162;57.568;25.814;2023-01-29T09:43:14;100370.94;;;-1.31;100.00
59650;BME280;46162;57.568;25.814;2023-01-29T09:45:51;100369.09;;;-1.28;100.00
59650;BME280;46162;57.568;25.814;2023-01-29T09:48:22;100365.56;;;-1.29;100.00
59650;BME280;46162;57.568;25.814;2023-01-29T09:50:56;100354.03;;;-1.28;100.00
59650;BME280;46162;57.568;25.814;2023-01-29T09:53:30;100339.78;;;-1.25;100.00
59650;BME280;46162;57.568;25.814;2023-01-29T09:56:04;100336.09;;;-1.23;100.00
59650;BME280;46162;57.568;25.814;2023-01-29T09:58:37;100336.09;;;-1.23;100.00
59650;BME280;46162;57.568;25.814;2023-01-29T10:01:12;100325.50;;;-1.23;100.00
59650;BME280;46162;57.568;25.814;2023-01-29T10:04:15;100319.19;;;-1.20;100.00
59650;BME280;46162;57.568;25.814;2023-01-29T10:07:04;100313.88;;;-1.20;100.00
59650;BME280;46162;57.568;25.814;2023-01-29T10:10:06;100307.63;;;-1.19;100.00
59650;BME280;46162;57.568;25.814;2023-01-29T10:12:52;100298.84;;;-1.20;100.00
59650;BME280;46162;57.568;25.814;2023-01-29T10:18:51;100291.06;;;-1.23;100.00
59650;BME280;46162;57.568;25.814;2023-01-29T10:21:35;100292.75;;;-1.22;100.00
59650;BME280;46162;57.568;25.814;2023-01-29T10:24:21;100277.06;;;-1.25;100.00
59650;BME280;46162;57.568;25.814;2023-01-29T10:26:51;100275.25;;;-1.24;100.00
59650;BME280;46162;57.568;25.814;2023-01-29T10:29:20;100278.00;;;-1.26;100.00
59650;BME280;46162;57.568;25.814;2023-01-29T10:31:52;100275.19;;;-1.23;100.00
59650;BME280;46162;57.568;25.814;2023-01-29T10:34:26;100273.28;;;-1.21;100.00
59650;BME280;46162;57.568;25.814;2023-01-29T10:36:58;100264.31;;;-1.18;100.00
59650;BME280;46162;57.568;25.814;2023-01-29T10:39:30;100253.63;;;-1.17;100.00
59650;BME280;46162;57.568;25.814;2023-01-29T10:42:04;100257.03;;;-1.15;100.00
59650;BME280;46162;57.568;25.814;2023-01-29T10:44:48;100249.09;;;-1.15;100.00
59650;BME280;46162;57.568;25.814;2023-01-29T10:47:32;100243.72;;;-1.13;100.00
59650;BME280;46162;57.568;25.814;2023-01-29T10:50:27;100238.31;;;-1.12;100.00
59650;BME280;46162;57.568;25.814;2023-01-29T10:53:15;100229.63;;;-1.14;100.00
59650;BME280;46162;57.568;25.814;2023-01-29T10:55:57;100219.03;;;-1.14;100.00
59650;BME280;46162;57.568;25.814;2023-01-29T10:58:50;100218.91;;;-1.12;100.00
59650;BME280;46162;57.568;25.814;2023-01-29T11:01:19;100218.00;;;-1.11;100.00
59650;BME280;46162;57.568;25.814;2023-01-29T11:03:55;100210.97;;;-1.12;100.00
59650;BME280;46162;57.568;25.814;2023-01-29T11:06:28;100201.22;;;-1.12;100.00
59650;BME280;46162;57.568;25.814;2023-01-29T11:09:02;100195.06;;;-1.12;100.00
59650;BME280;46162;57.568;25.814;2023-01-29T11:11:40;100192.16;;;-1.08;100.00
59650;BME280;46162;57.568;25.814;2023-01-29T11:14:13;100187.72;;;-1.07;100.00
59650;BME280;46162;57.568;25.814;2023-01-29T11:16:46;100189.44;;;-1.06;100.00
59650;BME280;46162;57.568;25.814;2023-01-29T11:19:14;100191.22;;;-1.06;100.00
59650;BME280;46162;57.568;25.814;2023-01-29T11:21:51;100185.91;;;-1.06;100.00
59650;BME280;46162;57.568;25.814;2023-01-29T11:24:20;100178.72;;;-1.04;100.00
59650;BME280;46162;57.568;25.814;2023-01-29T11:26:52;100170.78;;;-1.04;100.00
59650;BME280;46162;57.568;25.814;2023-01-29T11:29:40;100153.84;;;-1.02;100.00
59650;BME280;46162;57.568;25.814;2023-01-29T11:32:13;100152.16;;;-1.03;100.00
59650;BME280;46162;57.568;25.814;2023-01-29T11:35:02;100151.31;;;-1.03;100.00
59650;BME280;46162;57.568;25.814;2023-01-29T11:37:34;100139.84;;;-1.04;100.00
59650;BME280;46162;57.568;25.814;2023-01-29T11:40:34;100140.59;;;-1.02;100.00
59650;BME280;46162;57.568;25.814;2023-01-29T11:43:22;100134.38;;;-1.01;100.00
59650;BME280;46162;57.568;25.814;2023-01-29T11:45:57;100129.16;;;-1.02;100.00
59650;BME280;46162;57.568;25.814;2023-01-29T11:48:38;100128.22;;;-1.01;100.00
59650;BME280;46162;57.568;25.814;2023-01-29T11:51:11;100128.13;;;-1.00;100.00
59650;BME280;46162;57.568;25.814;2023-01-29T11:53:50;100121.69;;;-0.96;100.00
59650;BME280;46162;57.568;25.814;2023-01-29T11:56:21;100128.03;;;-0.98;100.00
59650;BME280;46162;57.568;25.814;2023-01-29T11:58:56;100126.31;;;-0.99;100.00
59650;BME280;46162;57.568;25.814;2023-01-29T12:01:32;100128.97;;;-0.99;100.00
59650;BME280;46162;57.568;25.814;2023-01-29T12:04:03;100125.38;;;-0.98;100.00
59650;BME280;46162;57.568;25.814;2023-01-29T12:06:43;100128.97;;;-0.99;100.00
59650;BME280;46162;57.568;25.814;2023-01-29T12:09:17;100114.88;;;-1.00;100.00
59650;BME280;46162;57.568;25.814;2023-01-29T12:11:47;100128.97;;;-0.99;100.00
59650;BME280;46162;57.568;25.814;2023-01-29T12:14:27;100141.38;;;-1.00;100.00
59650;BME280;46162;57.568;25.814;2023-01-29T12:17:03;100121.97;;;-1.00;100.00
59650;BME280;46162;57.568;25.814;2023-01-29T12:19:37;100121.97;;;-1.00;100.00
59650;BME280;46162;57.568;25.814;2023-01-29T12:22:13;100124.63;;;-1.00;100.00
59650;BME280;46162;57.568;25.814;2023-01-29T12:24:49;100107.88;;;-1.01;100.00
59650;BME280;46162;57.568;25.814;2023-01-29T12:27:24;100110.41;;;-0.99;100.00
59650;BME280;46162;57.568;25.814;2023-01-29T12:30:01;100106.00;;;-0.99;100.00
59650;BME280;46162;57.568;25.814;2023-01-29T12:32:39;100104.28;;;-1.00;100.00
59650;BME280;46162;57.568;25.814;2023-01-29T12:35:16;100113.84;;;-0.97;100.00
59650;BME280;46162;57.568;25.814;2023-01-29T12:37:53;100121.00;;;-0.99;100.00
59650;BME280;46162;57.568;25.814;2023-01-29T12:40:27;100108.53;;;-0.97;100.00
59650;BME280;46162;57.568;25.814;2023-01-29T12:43:01;100100.69;;;-0.99;100.00
59650;BME280;46162;57.568;25.814;2023-01-29T12:45:34;100107.75;;;-0.99;100.00
59650;BME280;46162;57.568;25.814;2023-01-29T12:48:07;100108.53;;;-0.97;100.00
59650;BME280;46162;57.568;25.814;2023-01-29T12:50:37;100100.50;;;-0.96;100.00
59650;BME280;46162;57.568;25.814;2023-01-29T12:53:11;100103.16;;;-0.96;100.00
59650;BME280;46162;57.568;25.814;2023-01-29T12:55:47;100090.75;;;-0.95;100.00
59650;BME280;46162;57.568;25.814;2023-01-29T12:58:24;100085.53;;;-0.97;100.00
59650;BME280;46162;57.568;25.814;2023-01-29T13:01:03;100078.47;;;-0.96;100.00
59650;BME280;46162;57.568;25.814;2023-01-29T13:03:45;100082.03;;;-0.97;100.00
59650;BME280;46162;57.568;25.814;2023-01-29T13:06:19;100084.59;;;-0.96;100.00
59650;BME280;46162;57.568;25.814;2023-01-29T13:08:52;100077.59;;;-0.97;100.00
59650;BME280;46162;57.568;25.814;2023-01-29T13:11:26;100078.47;;;-0.96;100.00
59650;BME280;46162;57.568;25.814;2023-01-29T13:13:58;100080.34;;;-0.98;100.00